Time;durP1;ratioP1;P1;durP2;ratioP2;P2;SDS_P1;SDS_P2;PMS_P1;PMS_P2;Temp;Humidity;BMP_temperature;BMP_pressure;BME280_temperature;BME280_humidity;BME280_pressure;Samples;Min_cycle;Max_cycle;Signal;HPM_P1;HPM_P2
2023/04/17 00:02:03;;;;;;;19.38;9.80;;;10.60;1.00;;;;;;5072261;28;20376;-55
2023/04/17 00:04:29;;;;;;;21.07;9.90;;;10.10;1.00;;;;;;5070599;28;20756;-55
2023/04/17 00:06:55;;;;;;;17.35;9.60;;;10.20;1.00;;;;;;5071677;28;20487;-54
2023/04/17 00:09:21;;;;;;;22.03;10.13;;;10.20;1.00;;;;;;5059253;28;20487;-55
2023/04/17 00:11:46;;;;;;;20.23;9.60;;;10.20;1.00;;;;;;5071325;28;20407;-55
2023/04/17 00:14:12;;;;;;;20.03;8.83;;;10.10;1.00;;;;;;5071851;28;20849;-55
2023/04/17 00:16:38;;;;;;;19.17;9.60;;;10.10;1.00;;;;;;5070720;28;20411;-55
2023/04/17 00:19:03;;;;;;;20.30;9.93;;;10.00;1.00;;;;;;5071434;28;21107;-55
2023/04/17 00:21:31;;;;;;;20.48;10.15;;;10.00;1.00;;;;;;5070626;28;20468;-55
2023/04/17 00:23:57;;;;;;;20.80;10.50;;;10.10;1.00;;;;;;5071160;28;20400;-55
2023/04/17 00:26:23;;;;;;;21.00;10.55;;;10.20;1.00;;;;;;5070738;28;20462;-55
2023/04/17 00:28:50;;;;;;;19.15;10.30;;;10.20;1.00;;;;;;5070778;28;20485;-55
2023/04/17 00:31:16;;;;;;;19.85;9.40;;;10.10;1.00;;;;;;5071397;28;20503;-55
2023/04/17 00:33:41;;;;;;;21.50;9.70;;;10.10;1.00;;;;;;5070554;28;20924;-55
2023/04/17 00:36:08;;;;;;;21.58;10.55;;;10.30;1.00;;;;;;5070848;28;20469;-55
2023/04/17 00:38:34;;;;;;;18.02;9.88;;;10.10;1.00;;;;;;5070364;28;20384;-55
2023/04/17 00:41:00;;;;;;;24.08;10.38;;;10.00;1.00;;;;;;5071285;28;20889;-55
2023/04/17 00:43:25;;;;;;;23.00;10.23;;;10.00;1.00;;;;;;5071118;28;20384;-55
2023/04/17 00:45:53;;;;;;;18.92;10.32;;;9.90;1.00;;;;;;5071446;28;20963;-54
2023/04/17 00:48:19;;;;;;;22.35;11.50;;;10.20;1.00;;;;;;5070427;28;20383;-55
2023/04/17 00:50:46;;;;;;;23.60;10.30;;;9.90;1.00;;;;;;5070202;28;20468;-55
2023/04/17 00:53:12;;;;;;;21.77;10.07;;;9.90;1.00;;;;;;5070931;28;20392;-55
2023/04/17 00:55:40;;;;;;;20.77;9.60;;;9.90;1.00;;;;;;5069841;28;20444;-55
2023/04/17 00:58:06;;;;;;;19.33;9.43;;;9.90;1.00;;;;;;5067567;28;20456;-55
2023/04/17 01:00:33;;;;;;;21.15;9.45;;;10.00;1.00;;;;;;5070113;28;20488;-55
2023/04/17 01:02:59;;;;;;;19.55;9.68;;;9.90;1.00;;;;;;5071213;28;20399;-55
2023/04/17 01:05:26;;;;;;;18.33;9.23;;;9.80;1.00;;;;;;5069568;28;20388;-55
2023/04/17 01:07:52;;;;;;;21.48;10.10;;;9.80;1.00;;;;;;5070639;28;20470;-55
2023/04/17 01:10:18;;;;;;;20.00;10.67;;;9.70;1.00;;;;;;5070795;28;20379;-55
2023/04/17 01:12:47;;;;;;;22.10;10.00;;;9.70;1.00;;;;;;5070150;28;20955;-55
2023/04/17 01:15:13;;;;;;;19.42;9.70;;;9.70;1.00;;;;;;5070299;28;20400;-55
2023/04/17 01:17:39;;;;;;;21.45;9.52;;;9.70;1.00;;;;;;5069724;28;20492;-55
2023/04/17 01:20:06;;;;;;;19.97;10.07;;;9.80;1.00;;;;;;5071046;28;20481;-55
2023/04/17 01:22:32;;;;;;;22.90;10.00;;;9.80;1.00;;;;;;5069226;28;20434;-55
2023/04/17 01:24:57;;;;;;;22.52;10.57;;;9.70;1.00;;;;;;5070193;28;20396;-55
2023/04/17 01:27:23;;;;;;;19.63;10.20;;;9.70;1.00;;;;;;5070478;28;20463;-55
2023/04/17 01:29:49;;;;;;;21.95;10.18;;;9.80;1.00;;;;;;5069475;28;20423;-55
2023/04/17 01:32:16;;;;;;;22.38;9.75;;;9.80;1.00;;;;;;5070193;28;20812;-54
2023/04/17 01:34:42;;;;;;;34.20;17.90;;;9.80;1.00;;;;;;5069769;28;20404;-55
2023/04/17 01:37:08;;;;;;;23.20;12.30;;;9.80;1.00;;;;;;5069501;28;20769;-55
2023/04/17 01:39:35;;;;;;;26.50;12.60;;;10.00;1.00;;;;;;5069639;28;20453;-55
2023/04/17 01:42:00;;;;;;;21.23;10.35;;;10.00;1.00;;;;;;5052103;28;20800;-55
2023/04/17 01:44:26;;;;;;;21.10;10.03;;;10.10;1.00;;;;;;5069791;28;20391;-55
2023/04/17 01:46:52;;;;;;;23.97;10.13;;;10.10;1.00;;;;;;5069382;28;20478;-55
2023/04/17 01:49:17;;;;;;;20.90;9.75;;;10.20;1.00;;;;;;5069787;28;20418;-55
2023/04/17 01:51:43;;;;;;;19.80;9.13;;;10.20;1.00;;;;;;5069200;28;20395;-55
2023/04/17 01:54:08;;;;;;;20.88;9.98;;;10.10;1.00;;;;;;5069336;28;20383;-55
2023/04/17 01:56:34;;;;;;;19.47;9.70;;;11.10;1.00;;;;;;5069141;28;20431;-55
2023/04/17 01:59:00;;;;;;;21.15;9.65;;;10.20;1.00;;;;;;5068557;28;20487;-55
2023/04/17 02:01:25;;;;;;;20.93;10.00;;;10.10;1.00;;;;;;5069345;28;20403;-55
2023/04/17 02:03:51;;;;;;;19.83;10.25;;;10.10;1.00;;;;;;5069133;28;20938;-55
2023/04/17 02:06:17;;;;;;;21.35;10.73;;;10.10;1.00;;;;;;5070007;28;20484;-55
2023/04/17 02:08:42;;;;;;;21.50;10.37;;;10.10;1.00;;;;;;5069267;28;20391;-55
2023/04/17 02:11:09;;;;;;;22.73;10.25;;;10.20;1.00;;;;;;5070214;28;20376;-55
2023/04/17 02:13:35;;;;;;;21.98;10.63;;;10.20;1.00;;;;;;5068809;28;20403;-55
2023/04/17 02:16:00;;;;;;;22.42;9.52;;;10.20;1.00;;;;;;5069124;28;20418;-55
2023/04/17 02:18:27;;;;;;;22.20;9.63;;;10.10;1.00;;;;;;5069121;28;20426;-55
2023/04/17 02:20:52;;;;;;;21.15;9.50;;;10.10;1.00;;;;;;5068941;28;20399;-55
2023/04/17 02:23:18;;;;;;;18.90;9.48;;;10.00;1.00;;;;;;5069080;28;20524;-55
2023/04/17 02:25:44;;;;;;;18.37;8.80;;;9.90;1.00;;;;;;5068822;28;20467;-55
2023/04/17 02:28:09;;;;;;;21.15;9.57;;;9.80;1.00;;;;;;5069072;28;20937;-55
2023/04/17 02:30:35;;;;;;;19.00;9.27;;;9.80;1.00;;;;;;5068614;28;20402;-55
2023/04/17 02:33:01;;;;;;;21.08;9.68;;;9.90;1.00;;;;;;5069005;28;20491;-55
2023/04/17 02:35:28;;;;;;;18.70;10.32;;;9.90;1.00;;;;;;5068896;28;20406;-55
2023/04/17 02:37:54;;;;;;;19.77;9.65;;;9.80;1.00;;;;;;5068569;28;20384;-55
2023/04/17 02:40:20;;;;;;;20.00;9.37;;;9.80;1.00;;;;;;5069427;28;20544;-55
2023/04/17 02:42:45;;;;;;;19.52;9.50;;;11.60;1.00;;;;;;5068106;28;20383;-55
2023/04/17 02:45:11;;;;;;;21.13;9.70;;;9.90;1.00;;;;;;5069430;28;20400;-55
2023/04/17 02:47:37;;;;;;;20.60;10.30;;;9.70;1.00;;;;;;5068795;28;20785;-55
2023/04/17 02:50:04;;;;;;;20.90;9.45;;;9.90;1.00;;;;;;5069861;28;20425;-55
2023/04/17 02:52:32;;;;;;;19.55;9.35;;;9.80;1.00;;;;;;5068779;28;20880;-55
2023/04/17 02:54:57;;;;;;;20.05;10.15;;;9.80;1.00;;;;;;5069279;28;20744;-55
2023/04/17 02:57:24;;;;;;;18.13;9.55;;;9.70;1.00;;;;;;5068753;28;20407;-55
2023/04/17 02:59:50;;;;;;;20.95;9.75;;;9.70;1.00;;;;;;5068703;28;20399;-55
2023/04/17 03:02:21;;;;;;;23.05;9.98;;;9.70;1.00;;;;;;5069666;28;20396;-55
2023/04/17 03:04:50;;;;;;;22.10;10.05;;;9.80;1.00;;;;;;5068703;28;20455;-55
2023/04/17 03:07:17;;;;;;;26.17;10.17;;;9.70;1.00;;;;;;5068430;28;20457;-55
2023/04/17 03:09:46;;;;;;;22.97;10.63;;;9.80;1.00;;;;;;5068387;28;20921;-54
2023/04/17 03:12:13;;;;;;;23.30;10.70;;;8.80;1.00;;;;;;5064727;28;20490;-55
2023/04/17 03:14:39;;;;;;;21.73;10.30;;;9.70;1.00;;;;;;5072114;28;20384;-55
2023/04/17 03:17:05;;;;;;;19.58;9.00;;;9.80;1.00;;;;;;5072398;28;20403;-55
2023/04/17 03:19:30;;;;;;;21.23;10.00;;;9.80;1.00;;;;;;5072642;28;20429;-55
2023/04/17 03:21:56;;;;;;;21.70;10.52;;;9.70;1.00;;;;;;5072758;28;20391;-55
2023/04/17 03:24:21;;;;;;;20.70;10.00;;;9.70;1.00;;;;;;5072849;28;20484;-55
2023/04/17 03:26:47;;;;;;;19.30;10.27;;;9.80;1.00;;;;;;5072307;28;20639;-55
2023/04/17 03:29:13;;;;;;;19.30;9.27;;;9.80;1.00;;;;;;5072242;28;20450;-55
2023/04/17 03:31:38;;;;;;;19.43;9.43;;;9.80;1.00;;;;;;5071834;28;20395;-55
2023/04/17 03:34:05;;;;;;;18.70;10.43;;;9.80;1.00;;;;;;5072933;28;20877;-55
2023/04/17 03:36:31;;;;;;;20.10;10.20;;;9.90;1.00;;;;;;5071438;28;20425;-55
2023/04/17 03:38:56;;;;;;;19.08;9.50;;;9.90;1.00;;;;;;5072128;28;20406;-55
2023/04/17 03:41:22;;;;;;;21.83;10.60;;;9.90;1.00;;;;;;5072047;28;20471;-55
2023/04/17 03:43:48;;;;;;;20.58;9.77;;;9.90;1.00;;;;;;5071705;28;20380;-55
2023/04/17 03:46:13;;;;;;;19.80;9.07;;;9.90;1.00;;;;;;5072697;28;20453;-54
2023/04/17 03:48:39;;;;;;;22.15;9.98;;;9.90;1.00;;;;;;5071560;28;20406;-54
2023/04/17 03:51:05;;;;;;;19.30;10.07;;;9.90;1.00;;;;;;5071946;28;20903;-55
2023/04/17 03:53:30;;;;;;;19.05;9.15;;;10.00;1.00;;;;;;5072029;28;20380;-55
2023/04/17 03:55:56;;;;;;;20.40;9.60;;;10.00;1.00;;;;;;5072053;28;20819;-54
2023/04/17 03:58:21;;;;;;;20.77;9.80;;;10.00;1.00;;;;;;5072339;28;20427;-55
2023/04/17 04:00:48;;;;;;;18.33;9.50;;;9.80;1.00;;;;;;5071156;28;21090;-55
2023/04/17 04:03:14;;;;;;;20.40;9.40;;;9.70;1.00;;;;;;5071840;28;20876;-54
2023/04/17 04:05:40;;;;;;;20.80;9.27;;;9.90;1.00;;;;;;5071147;28;20388;-55
2023/04/17 04:08:05;;;;;;;19.05;9.07;;;9.90;1.00;;;;;;5072190;28;20394;-55
2023/04/17 04:10:31;;;;;;;18.10;9.23;;;10.00;1.00;;;;;;5071530;28;20392;-55
2023/04/17 04:12:57;;;;;;;19.17;10.20;;;10.10;1.00;;;;;;5071964;28;20382;-54
2023/04/17 04:15:22;;;;;;;21.17;9.47;;;10.00;1.00;;;;;;5071855;28;20427;-54
2023/04/17 04:17:48;;;;;;;20.03;9.27;;;10.00;1.00;;;;;;5071610;28;20415;-54
2023/04/17 04:20:13;;;;;;;22.13;10.48;;;10.00;1.00;;;;;;5068350;28;20772;-54
2023/04/17 04:22:40;;;;;;;22.17;10.90;;;10.10;1.00;;;;;;5060655;28;20427;-54
2023/04/17 04:25:06;;;;;;;19.58;9.77;;;10.10;1.00;;;;;;5071400;28;20456;-54
2023/04/17 04:27:32;;;;;;;19.30;9.55;;;10.10;1.00;;;;;;5070721;28;20896;-55
2023/04/17 04:30:00;;;;;;;24.90;10.57;;;10.10;1.00;;;;;;5071316;28;20423;-54
2023/04/17 04:32:26;;;;;;;22.17;10.35;;;10.00;1.00;;;;;;5068693;28;20407;-54
2023/04/17 04:34:55;;;;;;;19.33;9.30;;;10.00;1.00;;;;;;5070167;28;20766;-55
2023/04/17 04:37:28;;;;;;;18.20;9.27;;;10.00;1.00;;;;;;5071021;28;20778;-54
2023/04/17 04:40:00;;;;;;;19.50;9.85;;;9.90;1.00;;;;;;5070154;28;20470;-54
2023/04/17 04:42:27;;;;;;;18.40;9.73;;;9.90;1.00;;;;;;5068041;28;20474;-54
2023/04/17 04:44:52;;;;;;;21.08;10.02;;;9.90;1.00;;;;;;5067745;28;20399;-54
2023/04/17 04:47:18;;;;;;;18.47;9.47;;;9.90;1.00;;;;;;5070426;28;20426;-54
2023/04/17 04:49:44;;;;;;;21.60;9.63;;;9.80;1.00;;;;;;5069370;28;20431;-54
2023/04/17 04:52:10;;;;;;;20.30;9.80;;;9.90;1.00;;;;;;5069831;28;20953;-55
2023/04/17 04:54:35;;;;;;;20.87;9.80;;;10.00;1.00;;;;;;5083899;28;20407;-54
2023/04/17 04:57:02;;;;;;;22.33;10.02;;;10.00;1.00;;;;;;5060159;28;20415;-54
2023/04/17 04:59:28;;;;;;;17.15;9.50;;;10.10;1.00;;;;;;5070890;28;20400;-54
2023/04/17 05:01:53;;;;;;;19.42;9.95;;;10.00;1.00;;;;;;5069777;28;20399;-54
2023/04/17 05:04:19;;;;;;;22.42;10.07;;;10.10;1.00;;;;;;5070564;28;20449;-54
2023/04/17 05:06:45;;;;;;;21.50;10.13;;;10.00;1.00;;;;;;5069922;28;20895;-54
2023/04/17 05:09:10;;;;;;;24.30;9.63;;;9.80;1.00;;;;;;5070642;28;20412;-54
2023/04/17 05:11:36;;;;;;;24.95;10.50;;;9.90;1.00;;;;;;5068740;28;20391;-54
2023/04/17 05:14:02;;;;;;;20.37;9.97;;;9.90;1.00;;;;;;5073345;28;20384;-54
2023/04/17 05:16:27;;;;;;;22.25;10.02;;;10.00;1.00;;;;;;5075053;28;20413;-55
2023/04/17 05:18:54;;;;;;;23.00;10.60;;;9.90;1.00;;;;;;5071473;28;20484;-54
2023/04/17 05:21:20;;;;;;;22.33;11.02;;;9.80;1.00;;;;;;5070545;28;20382;-54
2023/04/17 05:23:45;;;;;;;21.33;10.23;;;9.90;1.00;;;;;;5074298;28;20800;-54
2023/04/17 05:26:12;;;;;;;19.50;9.87;;;10.00;1.00;;;;;;5070385;28;20565;-54
2023/04/17 05:28:37;;;;;;;20.13;9.82;;;9.90;1.00;;;;;;5069756;28;20415;-54
2023/04/17 05:31:03;;;;;;;22.40;10.37;;;9.90;1.00;;;;;;5070031;28;20911;-54
2023/04/17 05:33:29;;;;;;;19.77;9.50;;;9.80;1.00;;;;;;5069559;28;20404;-55
2023/04/17 05:35:55;;;;;;;20.90;10.17;;;9.90;1.00;;;;;;5069979;28;20427;-54
2023/04/17 05:38:22;;;;;;;24.35;9.65;;;9.90;1.00;;;;;;5069659;28;20875;-54
2023/04/17 05:40:48;;;;;;;20.53;10.07;;;9.80;1.00;;;;;;5069507;28;20500;-54
2023/04/17 05:43:13;;;;;;;23.67;10.55;;;9.80;1.00;;;;;;5070433;28;20383;-54
2023/04/17 05:45:40;;;;;;;20.60;9.57;;;9.80;1.00;;;;;;5068070;28;20487;-54
2023/04/17 05:48:06;;;;;;;21.88;10.57;;;9.90;1.00;;;;;;5070274;28;20368;-54
2023/04/17 05:50:32;;;;;;;19.95;9.60;;;9.80;1.00;;;;;;5069650;28;20473;-55
2023/04/17 05:52:57;;;;;;;18.92;10.48;;;9.90;1.00;;;;;;5070521;28;20678;-54
2023/04/17 05:55:23;;;;;;;20.00;10.00;;;10.00;1.00;;;;;;5069903;28;20381;-54
2023/04/17 05:57:48;;;;;;;20.47;10.37;;;9.80;1.00;;;;;;5069449;28;20793;-54
2023/04/17 06:00:15;;;;;;;19.45;10.10;;;9.90;1.00;;;;;;5070227;28;20873;-54
2023/04/17 06:02:41;;;;;;;23.00;10.23;;;10.00;1.00;;;;;;5069754;28;20380;-54
2023/04/17 06:05:08;;;;;;;17.10;8.80;;;9.90;1.00;;;;;;5063082;28;20453;-54
2023/04/17 06:07:33;;;;;;;21.23;10.65;;;9.90;1.00;;;;;;5069848;28;20403;-54
2023/04/17 06:10:00;;;;;;;20.88;9.90;;;10.00;1.00;;;;;;5069687;28;20446;-54
2023/04/17 06:12:26;;;;;;;18.95;9.55;;;10.10;1.00;;;;;;5069958;28;20379;-54
2023/04/17 06:14:51;;;;;;;19.33;10.23;;;10.10;1.00;;;;;;5069918;28;20787;-54
2023/04/17 06:17:17;;;;;;;21.20;9.93;;;10.00;1.00;;;;;;5070238;28;20400;-54
2023/04/17 06:19:43;;;;;;;21.80;9.70;;;10.00;1.00;;;;;;5069910;28;20403;-54
2023/04/17 06:22:10;;;;;;;18.92;9.43;;;9.90;1.00;;;;;;5070016;28;20379;-54
2023/04/17 06:24:35;;;;;;;27.70;14.77;;;9.80;1.00;;;;;;5069299;28;20478;-54
2023/04/17 06:27:02;;;;;;;33.25;16.92;;;10.00;1.00;;;;;;5070209;28;20474;-54
2023/04/17 06:29:28;;;;;;;22.88;11.73;;;10.00;1.00;;;;;;5069811;28;20498;-54
2023/04/17 06:31:54;;;;;;;22.40;10.60;;;10.00;1.00;;;;;;5069358;28;20465;-54
2023/04/17 06:34:21;;;;;;;23.55;10.55;;;9.90;1.00;;;;;;5069864;28;20423;-54
2023/04/17 06:36:47;;;;;;;21.90;10.25;;;10.00;1.00;;;;;;5068726;28;20806;-54
2023/04/17 06:39:13;;;;;;;18.13;9.10;;;10.00;1.00;;;;;;5069898;28;20418;-54
2023/04/17 06:41:39;;;;;;;19.25;9.60;;;10.00;1.00;;;;;;5069371;28;20841;-54
2023/04/17 06:44:05;;;;;;;20.05;10.55;;;10.10;1.00;;;;;;5069596;28;20495;-54
2023/04/17 06:46:31;;;;;;;21.67;10.98;;;10.70;1.00;;;;;;5069032;28;20912;-55
2023/04/17 06:48:58;;;;;;;20.60;9.30;;;10.00;1.00;;;;;;5069389;28;20449;-54
2023/04/17 06:51:26;;;;;;;21.92;9.38;;;10.20;1.00;;;;;;5069301;28;20380;-54
2023/04/17 06:53:52;;;;;;;19.15;9.25;;;10.00;1.00;;;;;;5068998;28;20969;-54
2023/04/17 06:56:18;;;;;;;20.20;9.65;;;9.90;1.00;;;;;;5069743;28;20442;-54
2023/04/17 06:58:43;;;;;;;18.25;9.68;;;9.70;1.00;;;;;;5069174;28;20431;-54
2023/04/17 07:01:10;;;;;;;18.23;9.70;;;9.60;1.00;;;;;;5069119;28;20392;-54
2023/04/17 07:03:37;;;;;;;16.92;8.80;;;9.70;1.00;;;;;;5068654;28;20416;-54
2023/04/17 07:06:03;;;;;;;20.50;9.90;;;9.80;1.00;;;;;;5068939;28;20415;-54
2023/04/17 07:08:29;;;;;;;17.58;8.65;;;9.70;1.00;;;;;;5069135;28;20867;-54
2023/04/17 07:10:54;;;;;;;19.47;9.60;;;9.60;1.00;;;;;;5068272;28;20453;-54
2023/04/17 07:13:20;;;;;;;19.30;9.20;;;9.50;1.00;;;;;;5069653;28;20375;-54
2023/04/17 07:15:55;;;;;;;19.87;8.50;;;9.50;1.00;;;;;;5068553;28;20441;-54
2023/04/17 07:18:21;;;;;;;21.73;9.07;;;9.60;1.00;;;;;;5069474;28;20375;-54
2023/04/17 07:20:48;;;;;;;20.83;9.57;;;9.60;1.00;;;;;;5068483;28;20471;-54
2023/04/17 07:23:14;;;;;;;20.07;9.80;;;9.60;1.00;;;;;;5069428;28;20375;-54
2023/04/17 07:25:40;;;;;;;19.35;9.82;;;9.70;1.00;;;;;;5068640;28;20391;-54
2023/04/17 07:28:06;;;;;;;18.67;9.77;;;9.70;1.00;;;;;;5068938;28;20388;-54
2023/04/17 07:30:32;;;;;;;20.33;9.48;;;9.70;1.00;;;;;;5068747;28;20414;-55
2023/04/17 07:32:57;;;;;;;19.50;9.10;;;9.80;1.00;;;;;;5069155;28;20464;-54
2023/04/17 07:35:23;;;;;;;21.17;9.57;;;9.80;1.00;;;;;;5069053;28;20877;-54
2023/04/17 07:37:49;;;;;;;19.50;9.45;;;9.90;1.00;;;;;;5067944;28;20920;-54
2023/04/17 07:40:15;;;;;;;18.73;9.18;;;9.90;1.00;;;;;;5069252;28;20376;-54
2023/04/17 07:42:41;;;;;;;19.50;8.60;;;9.80;1.00;;;;;;5068622;28;20380;-54
2023/04/17 07:45:07;;;;;;;17.98;8.52;;;10.50;1.00;;;;;;5069103;28;20409;-54
2023/04/17 07:47:33;;;;;;;19.20;9.05;;;9.70;1.00;;;;;;5068717;28;20380;-54
2023/04/17 07:49:59;;;;;;;18.35;9.23;;;9.80;1.00;;;;;;5069028;28;20407;-53
2023/04/17 07:52:24;;;;;;;19.60;9.38;;;9.80;1.00;;;;;;5068565;28;20537;-53
2023/04/17 07:54:50;;;;;;;20.55;9.70;;;9.90;1.00;;;;;;5068271;28;20380;-53
2023/04/17 07:57:17;;;;;;;21.20;9.47;;;10.20;1.00;;;;;;5071295;28;20407;-53
2023/04/17 07:59:43;;;;;;;19.30;9.10;;;10.00;1.00;;;;;;5072064;28;20395;-54
2023/04/17 08:02:09;;;;;;;19.97;8.77;;;10.20;1.00;;;;;;5072795;28;20395;-53
2023/04/17 08:04:34;;;;;;;18.35;8.60;;;10.20;1.00;;;;;;5071644;28;20371;-54
2023/04/17 08:07:00;;;;;;;14.48;8.38;;;10.40;1.00;;;;;;5072224;28;20505;-54
2023/04/17 08:09:26;;;;;;;17.20;8.27;;;10.50;1.00;;;;;;5072614;28;20379;-54
2023/04/17 08:11:51;;;;;;;16.48;7.88;;;10.40;1.00;;;;;;5071798;28;20380;-54
2023/04/17 08:14:19;;;;;;;19.30;7.93;;;10.50;1.00;;;;;;5072180;28;20413;-53
2023/04/17 08:16:46;;;;;;;17.05;8.18;;;10.70;1.00;;;;;;5071288;28;20491;-54
2023/04/17 08:19:12;;;;;;;17.15;8.38;;;10.70;1.00;;;;;;5072239;28;20414;-54
2023/04/17 08:21:37;;;;;;;17.08;7.72;;;10.80;1.00;;;;;;5071372;28;20907;-54
2023/04/17 08:24:03;;;;;;;17.03;7.87;;;11.00;1.00;;;;;;5071975;28;20466;-54
2023/04/17 08:26:29;;;;;;;18.70;7.90;;;10.90;1.00;;;;;;5072066;28;20376;-54
2023/04/17 08:28:55;;;;;;;15.77;7.70;;;11.20;1.00;;;;;;5071090;28;20415;-54
2023/04/17 08:31:20;;;;;;;17.63;7.80;;;11.30;1.00;;;;;;5072233;28;20388;-54
2023/04/17 08:33:46;;;;;;;16.13;7.73;;;11.40;99.90;;;;;;5071074;28;20383;-54
2023/04/17 08:36:12;;;;;;;15.93;7.10;;;11.50;99.90;;;;;;5072078;28;20401;-54
2023/04/17 08:38:38;;;;;;;14.93;7.13;;;11.50;1.00;;;;;;5071260;28;20728;-54
2023/04/17 08:41:08;;;;;;;11.73;5.30;;;11.50;99.90;;;;;;5071839;28;20383;-54
2023/04/17 08:43:35;;;;;;;15.60;6.65;;;11.40;99.90;;;;;;5071339;28;20372;-54
2023/04/17 08:46:01;;;;;;;15.93;6.60;;;11.40;99.90;;;;;;5071154;28;20388;-54
2023/04/17 08:48:29;;;;;;;17.17;7.00;;;11.30;99.90;;;;;;5071778;28;20376;-54
2023/04/17 08:50:54;;;;;;;15.98;6.15;;;11.40;99.90;;;;;;5071009;28;20371;-54
2023/04/17 08:53:20;;;;;;;16.42;6.30;;;11.30;99.90;;;;;;5071505;28;20518;-54
2023/04/17 08:55:47;;;;;;;15.63;7.00;;;11.20;99.90;;;;;;5071179;28;20379;-54
2023/04/17 08:58:13;;;;;;;12.27;5.80;;;11.30;99.90;;;;;;5071557;28;20407;-54
2023/04/17 09:00:44;;;;;;;14.80;6.07;;;11.40;99.90;;;;;;5070735;28;20869;-54
2023/04/17 09:03:11;;;;;;;14.20;6.72;;;11.40;99.90;;;;;;5071424;28;20923;-54
2023/04/17 09:05:40;;;;;;;13.45;6.53;;;11.40;99.90;;;;;;5070539;28;20386;-54
2023/04/17 09:08:20;;;;;;;14.05;6.20;;;11.30;99.90;;;;;;5071060;28;20387;-54
2023/04/17 09:10:51;;;;;;;12.85;5.63;;;11.30;99.90;;;;;;5070620;28;20788;-54
2023/04/17 09:13:18;;;;;;;11.82;5.40;;;11.20;99.90;;;;;;5071285;28;20482;-54
2023/04/17 09:15:46;;;;;;;14.57;5.97;;;11.20;99.90;;;;;;5070493;28;20400;-54
2023/04/17 09:18:31;;;;;;;13.18;5.72;;;11.40;99.90;;;;;;5071183;28;20383;-54
2023/04/17 09:20:58;;;;;;;13.40;4.93;;;11.30;99.90;;;;;;5070431;28;20382;-54
2023/04/17 09:23:25;;;;;;;14.10;6.10;;;11.20;99.90;;;;;;5070553;28;20770;-54
2023/04/17 09:26:12;;;;;;;11.57;5.00;;;11.20;99.90;;;;;;5070093;28;20379;-54
2023/04/17 09:28:39;;;;;;;14.52;6.35;;;11.20;99.90;;;;;;5069890;28;20741;-55
2023/04/17 09:31:18;;;;;;;12.43;5.72;;;11.20;99.90;;;;;;5071006;28;20394;-54
2023/04/17 09:34:06;;;;;;;14.35;5.35;;;11.30;99.90;;;;;;5070298;28;20736;-54
2023/04/17 09:36:35;;;;;;;12.25;5.47;;;11.20;99.90;;;;;;5070818;28;20836;-54
2023/04/17 09:39:03;;;;;;;12.20;5.35;;;11.10;99.90;;;;;;5069769;28;20776;-54
2023/04/17 09:41:30;;;;;;;11.18;4.78;;;11.20;99.90;;;;;;5070495;28;20480;-54
2023/04/17 09:44:00;;;;;;;10.18;4.47;;;11.10;99.90;;;;;;5069916;28;20869;-54
2023/04/17 09:46:44;;;;;;;12.65;5.13;;;11.10;99.90;;;;;;5070928;28;20392;-54
2023/04/17 09:49:21;;;;;;;12.77;5.47;;;11.00;99.90;;;;;;5070489;28;20380;-54
2023/04/17 09:51:48;;;;;;;11.55;5.10;;;10.90;99.90;;;;;;5069858;28;20376;-54
2023/04/17 09:54:14;;;;;;;12.90;5.40;;;11.20;99.90;;;;;;5070335;28;20387;-54
2023/04/17 09:56:41;;;;;;;13.10;5.40;;;11.40;99.90;;;;;;5069576;28;20399;-54
2023/04/17 09:59:07;;;;;;;14.20;6.00;;;11.60;99.90;;;;;;5070061;28;20982;-54
2023/04/17 10:01:35;;;;;;;12.05;5.57;;;11.70;1.00;;;;;;5070503;28;20865;-57
2023/04/17 10:04:02;;;;;;;11.63;5.00;;;10.50;1.00;;;;;;5070056;28;20394;-55
2023/04/17 10:06:30;;;;;;;13.70;5.00;;;12.30;63.20;;;;;;5070504;28;20974;-55
2023/04/17 10:08:55;;;;;;;11.27;4.57;;;12.70;1.00;;;;;;5069330;28;20790;-55
2023/04/17 10:11:28;;;;;;;9.50;4.40;;;12.80;1.00;;;;;;5070141;28;20403;-55
2023/04/17 10:14:07;;;;;;;10.47;4.33;;;12.90;99.90;;;;;;5069383;28;20672;-55
2023/04/17 10:16:34;;;;;;;11.32;4.75;;;13.20;55.50;;;;;;5069746;28;20415;-55
2023/04/17 10:19:22;;;;;;;11.40;4.22;;;13.20;1.00;;;;;;5069174;28;20876;-55
2023/04/17 10:22:14;;;;;;;9.85;3.63;;;13.30;99.90;;;;;;5068943;28;20463;-55
2023/04/17 10:24:52;;;;;;;10.27;4.00;;;13.50;99.90;;;;;;5069118;28;20426;-55
2023/04/17 10:27:23;;;;;;;9.95;4.40;;;13.70;1.00;;;;;;5069729;28;20381;-55
2023/04/17 10:30:01;;;;;;;9.00;4.18;;;13.70;1.00;;;;;;5068705;28;20453;-55
2023/04/17 10:32:27;;;;;;;9.15;3.72;;;13.70;1.00;;;;;;5069725;28;20388;-56
2023/04/17 10:35:15;;;;;;;10.07;4.25;;;13.50;1.00;;;;;;5069044;28;20542;-55
2023/04/17 10:37:50;;;;;;;8.90;3.60;;;13.50;1.00;;;;;;5068800;28;20497;-56
2023/04/17 10:40:23;;;;;;;9.82;3.88;;;13.50;1.00;;;;;;5069533;28;20416;-55
2023/04/17 10:43:11;;;;;;;9.93;4.23;;;13.30;1.00;;;;;;5068702;28;20929;-55
2023/04/17 10:45:52;;;;;;;10.60;4.50;;;13.20;1.00;;;;;;5069241;28;20375;-55
2023/04/17 10:48:37;;;;;;;10.52;4.28;;;13.20;1.00;;;;;;5069865;28;20491;-55
2023/04/17 10:51:25;;;;;;;9.02;3.92;;;13.30;40.30;;;;;;5069688;28;20383;-55
2023/04/17 10:53:57;;;;;;;10.70;4.03;;;13.10;1.00;;;;;;5068700;28;20388;-55
2023/04/17 10:56:29;;;;;;;9.52;3.80;;;13.20;1.00;;;;;;5069407;28;20876;-55
2023/04/17 10:59:00;;;;;;;11.73;4.57;;;13.30;99.90;;;;;;5068746;28;20581;-55
2023/04/17 11:01:29;;;;;;;9.88;3.90;;;13.40;99.90;;;;;;5069795;28;20380;-55
2023/04/17 11:03:55;;;;;;;11.77;3.87;;;13.50;99.90;;;;;;5068954;28;20786;-55
2023/04/17 11:06:21;;;;;;;8.73;3.83;;;13.50;99.90;;;;;;5069672;28;20380;-55
2023/04/17 11:08:48;;;;;;;8.97;4.00;;;13.40;99.90;;;;;;5051334;28;20774;-55
2023/04/17 11:11:16;;;;;;;10.45;3.90;;;13.40;1.00;;;;;;5069641;28;20457;-55
2023/04/17 11:13:46;;;;;;;12.05;4.50;;;13.20;1.00;;;;;;5068334;28;20388;-55
2023/04/17 11:16:13;;;;;;;9.85;4.00;;;13.10;1.00;;;;;;5069252;28;20411;-55
2023/04/17 11:18:39;;;;;;;9.83;4.33;;;13.00;99.90;;;;;;5068839;28;20909;-55
2023/04/17 11:21:08;;;;;;;9.73;4.60;;;12.90;1.00;;;;;;5069762;28;20705;-55
2023/04/17 11:23:35;;;;;;;12.73;5.15;;;12.80;99.90;;;;;;5069718;28;20380;-55
2023/04/17 11:26:02;;;;;;;11.30;4.60;;;12.70;1.00;;;;;;5068429;28;20390;-55
2023/04/17 11:28:28;;;;;;;11.88;4.55;;;12.70;1.00;;;;;;5068604;28;20901;-55
2023/04/17 11:30:54;;;;;;;8.77;3.70;;;12.50;40.30;;;;;;5069419;28;20461;-55
2023/04/17 11:33:19;;;;;;;9.10;3.70;;;12.30;99.90;;;;;;5055607;28;20729;-55
2023/04/17 11:35:45;;;;;;;9.90;3.53;;;12.10;1.00;;;;;;5072392;28;20406;-55
2023/04/17 11:38:17;;;;;;;10.02;3.75;;;11.90;99.90;;;;;;5072949;28;20386;-54
2023/04/17 11:40:57;;;;;;;10.32;4.45;;;11.80;99.90;;;;;;5072222;28;20482;-55
2023/04/17 11:43:24;;;;;;;10.65;4.47;;;11.80;99.90;;;;;;5072938;28;20455;-54
2023/04/17 11:45:55;;;;;;;10.05;4.40;;;12.00;99.90;;;;;;5072303;28;20423;-55
2023/04/17 11:48:22;;;;;;;9.02;4.15;;;12.20;99.90;;;;;;5072754;28;20437;-55
2023/04/17 11:50:48;;;;;;;12.07;5.07;;;12.10;99.90;;;;;;5071942;28;20471;-55
2023/04/17 11:53:15;;;;;;;11.43;5.40;;;12.40;99.90;;;;;;5073106;28;20454;-55
2023/04/17 11:55:43;;;;;;;12.55;4.90;;;12.70;99.90;;;;;;5071932;28;20827;-55
2023/04/17 11:58:10;;;;;;;10.97;4.60;;;12.90;1.00;;;;;;5072539;28;20383;-54
2023/04/17 12:00:37;;;;;;;11.20;4.50;;;13.00;1.00;;;;;;5072323;28;20376;-55
2023/04/17 12:03:33;;;;;;;9.52;4.43;;;13.20;1.00;;;;;;5072177;28;20368;-55
2023/04/17 12:06:00;;;;;;;11.15;4.65;;;13.60;99.90;;;;;;5071828;28;20392;-55
2023/04/17 12:08:26;;;;;;;10.57;4.80;;;13.90;1.00;;;;;;5060762;28;20905;-57
2023/04/17 12:10:52;;;;;;;9.43;3.80;;;14.00;59.20;;;;;;5051972;28;20386;-57
2023/04/17 12:13:17;;;;;;;9.57;4.18;;;14.00;99.90;;;;;;5063280;28;20755;-57
2023/04/17 12:15:43;;;;;;;8.90;3.87;;;13.90;99.90;;;;;;5053891;28;20445;-57
2023/04/17 12:18:09;;;;;;;10.47;3.90;;;14.10;99.90;;;;;;5069158;28;20778;-58
2023/04/17 12:20:38;;;;;;;12.30;3.90;;;14.40;30.00;;;;;;5052760;28;20385;-58
2023/04/17 12:23:05;;;;;;;8.13;3.60;;;14.60;1.00;;;;;;5052079;28;20377;-58
2023/04/17 12:25:32;;;;;;;10.45;3.75;;;14.60;1.00;;;;;;5060793;28;20396;-57
2023/04/17 12:27:58;;;;;;;9.05;3.60;;;14.20;99.90;;;;;;5051253;28;20443;-57
2023/04/17 12:30:34;;;;;;;7.88;3.28;;;13.80;99.90;;;;;;5052103;28;20531;-55
2023/04/17 12:33:00;;;;;;;9.93;3.80;;;13.60;1.00;;;;;;5051525;28;20450;-55
2023/04/17 12:35:26;;;;;;;7.87;3.57;;;13.40;99.90;;;;;;5052918;28;20385;-54
2023/04/17 12:37:52;;;;;;;9.85;3.90;;;13.20;1.00;;;;;;5070241;28;20420;-55
2023/04/17 12:40:19;;;;;;;8.48;3.72;;;13.10;1.00;;;;;;5067653;28;20400;-54
2023/04/17 12:42:46;;;;;;;8.25;3.50;;;12.90;1.00;;;;;;5066766;28;20395;-54
2023/04/17 12:45:12;;;;;;;8.88;3.60;;;12.90;99.90;;;;;;5070739;28;20483;-55
2023/04/17 12:47:38;;;;;;;8.32;3.35;;;12.90;1.00;;;;;;5070907;28;20395;-55
2023/04/17 12:50:04;;;;;;;8.53;3.50;;;12.60;1.00;;;;;;5070494;28;20392;-55